createdAt,value
2019-01-15T00:00:30.961Z,78.66
2019-01-15T00:03:01.860Z,78.46
2019-01-15T00:05:32.869Z,78.99
2019-01-15T00:08:03.773Z,78.72
2019-01-15T00:10:34.709Z,78.61
2019-01-15T00:13:05.716Z,78.36
2019-01-15T00:15:36.631Z,78.67
2019-01-15T00:18:07.840Z,78.79
2019-01-15T00:20:38.729Z,78.75
2019-01-15T00:23:10.551Z,78.70
2019-01-15T00:25:43.261Z,78.57
2019-01-15T00:28:14.223Z,78.83
2019-01-15T00:30:45.113Z,78.34
2019-01-15T00:33:16.023Z,78.58
2019-01-15T00:35:46.944Z,78.42
2019-01-15T00:38:17.836Z,78.35
2019-01-15T00:40:48.878Z,78.36
2019-01-15T00:43:20.090Z,78.51
2019-01-15T00:45:51.304Z,78.64
2019-01-15T00:48:22.245Z,78.85
2019-01-15T00:50:53.468Z,78.68
2019-01-15T00:53:24.710Z,78.77
2019-01-15T00:55:55.712Z,78.78
2019-01-15T00:58:26.659Z,78.36
2019-01-15T01:00:57.602Z,78.12
2019-01-15T01:03:28.503Z,78.07
2019-01-15T01:05:59.453Z,77.86
2019-01-15T01:08:30.403Z,77.98
2019-01-15T01:11:01.320Z,77.76
2019-01-15T01:13:32.555Z,77.78
2019-01-15T01:16:03.994Z,77.73
2019-01-15T01:18:34.936Z,77.65
2019-01-15T01:21:05.974Z,77.64
2019-01-15T01:23:36.906Z,77.97
2019-01-15T01:26:08.216Z,77.98
2019-01-15T01:28:39.124Z,78.13
2019-01-15T01:31:10.068Z,77.72
2019-01-15T01:33:40.971Z,78.06
2019-01-15T01:36:11.856Z,77.76
2019-01-15T01:38:42.774Z,77.48
2019-01-15T01:41:13.972Z,77.36
2019-01-15T01:43:44.919Z,77.29
2019-01-15T01:46:15.810Z,77.34
2019-01-15T01:48:46.705Z,77.25
2019-01-15T01:51:17.652Z,77.07
2019-01-15T01:53:48.562Z,77.25
2019-01-15T01:56:19.503Z,77.44
2019-01-15T01:58:50.404Z,77.37
2019-01-15T02:01:21.332Z,77.61
2019-01-15T02:03:53.066Z,77.91
2019-01-15T02:06:24.970Z,78.04
2019-01-15T02:08:55.958Z,78.35
2019-01-15T02:11:26.852Z,78.58
2019-01-15T02:13:57.761Z,78.69
2019-01-15T02:16:28.684Z,78.68
2019-01-15T02:18:59.590Z,78.41
2019-01-15T02:21:30.559Z,78.60
2019-01-15T02:24:01.815Z,78.61
2019-01-15T02:26:32.715Z,78.58
2019-01-15T02:29:03.741Z,78.69
2019-01-15T02:31:34.628Z,78.53
2019-01-15T02:34:05.969Z,78.58
2019-01-15T02:36:36.856Z,78.75
2019-01-15T02:39:09.278Z,78.91
2019-01-15T02:41:40.266Z,78.86
2019-01-15T02:44:11.155Z,78.75
2019-01-15T02:46:42.106Z,78.89
2019-01-15T02:49:12.991Z,78.94
2019-01-15T02:51:43.886Z,78.78
2019-01-15T02:54:14.814Z,78.98
2019-01-15T02:56:45.708Z,79.23
2019-01-15T02:59:16.659Z,79.50
2019-01-15T03:01:47.932Z,79.68
2019-01-15T03:04:19.088Z,79.56
2019-01-15T03:06:50.012Z,79.39
2019-01-15T03:09:20.908Z,79.82
2019-01-15T03:11:51.842Z,79.66
2019-01-15T03:14:22.810Z,79.62
2019-01-15T03:16:53.988Z,79.71
2019-01-15T03:19:24.903Z,79.67
2019-01-15T03:21:55.800Z,79.71
2019-01-15T03:24:27.034Z,79.55
2019-01-15T03:26:57.925Z,79.56
2019-01-15T03:29:28.869Z,79.50
2019-01-15T03:31:59.839Z,79.34
2019-01-15T03:34:31.102Z,79.58
2019-01-15T03:37:02.036Z,79.81
2019-01-15T03:39:33.239Z,79.96
2019-01-15T03:42:04.291Z,79.66
2019-01-15T03:44:35.200Z,79.89
2019-01-15T03:47:06.087Z,80.17
2019-01-15T03:49:37.032Z,80.04
2019-01-15T03:52:07.919Z,79.97
2019-01-15T03:54:38.813Z,79.93
2019-01-15T03:57:09.791Z,80.10
2019-01-15T03:59:40.689Z,79.94
2019-01-15T04:02:12.791Z,79.81
2019-01-15T04:04:44.150Z,79.65
2019-01-15T04:07:16.322Z,79.68
2019-01-15T04:09:48.008Z,79.79
2019-01-15T04:12:19.314Z,80.06
2019-01-15T04:14:50.369Z,80.14
2019-01-15T04:17:21.280Z,80.02
2019-01-15T04:19:52.171Z,80.12
2019-01-15T04:22:23.093Z,80.24
2019-01-15T04:24:54.285Z,80.07
2019-01-15T04:27:25.615Z,80.35
2019-01-15T04:29:56.549Z,80.54
2019-01-15T04:32:27.469Z,80.65
2019-01-15T04:34:59.081Z,80.63
2019-01-15T04:37:30.078Z,80.56
2019-01-15T04:40:01.029Z,80.62
2019-01-15T04:42:31.991Z,80.23
2019-01-15T04:45:03.115Z,79.88
2019-01-15T04:47:34.033Z,79.81
2019-01-15T04:50:05.764Z,80.05
2019-01-15T04:52:37.193Z,80.25
2019-01-15T04:55:08.970Z,80.12
2019-01-15T04:57:39.849Z,79.67
2019-01-15T05:00:15.529Z,79.39
2019-01-15T05:02:46.989Z,79.46
2019-01-15T05:05:18.038Z,79.75
2019-01-15T05:07:49.012Z,79.65
2019-01-15T05:10:20.213Z,79.53
2019-01-15T05:12:51.223Z,79.37
2019-01-15T05:15:22.401Z,79.45
2019-01-15T05:17:53.346Z,79.63
2019-01-15T05:20:24.229Z,79.58
2019-01-15T05:22:55.118Z,79.60
2019-01-15T05:25:26.042Z,78.80
2019-01-15T05:27:56.930Z,78.85
2019-01-15T05:30:30.454Z,78.76
2019-01-15T05:33:01.353Z,78.86
2019-01-15T05:35:32.257Z,78.60
2019-01-15T05:38:03.258Z,78.73
2019-01-15T05:40:34.138Z,79.05
2019-01-15T05:43:05.085Z,78.79
2019-01-15T05:45:38.061Z,78.60
2019-01-15T05:48:16.398Z,78.51
2019-01-15T05:51:06.150Z,78.60
2019-01-15T05:53:37.133Z,78.24
2019-01-15T05:56:09.522Z,78.40
2019-01-15T05:58:40.552Z,78.35
2019-01-15T06:01:11.468Z,78.45
2019-01-15T06:03:42.365Z,78.18
2019-01-15T06:06:13.302Z,77.58
2019-01-15T06:08:44.223Z,77.67
2019-01-15T06:11:15.426Z,77.39
2019-01-15T06:13:46.345Z,77.39
2019-01-15T06:16:17.229Z,76.93
2019-01-15T06:18:48.165Z,76.70
2019-01-15T06:21:19.370Z,76.14
2019-01-15T06:23:50.556Z,75.88
2019-01-15T06:26:21.464Z,75.45
2019-01-15T06:28:52.560Z,75.00
2019-01-15T06:32:17.701Z,75.16
2019-01-15T06:34:53.740Z,75.30
2019-01-15T06:37:24.850Z,75.38
2019-01-15T06:39:55.744Z,75.40
2019-01-15T06:42:26.747Z,75.36
2019-01-15T06:44:57.966Z,75.66
2019-01-15T06:47:28.894Z,75.57
2019-01-15T06:49:59.820Z,75.23
2019-01-15T06:52:30.714Z,75.37
2019-01-15T06:55:01.601Z,75.47
2019-01-15T06:57:32.535Z,75.24
2019-01-15T07:00:03.484Z,75.55
2019-01-15T07:02:34.447Z,75.29
2019-01-15T07:05:05.959Z,75.20
2019-01-15T07:07:36.846Z,75.28
2019-01-15T07:10:11.142Z,75.45
2019-01-15T07:12:42.032Z,76.09
2019-01-15T07:15:13.152Z,77.34
2019-01-15T07:17:44.078Z,77.69
2019-01-15T07:20:15.738Z,78.44
2019-01-15T07:22:46.664Z,79.18
2019-01-15T07:25:18.114Z,79.59
2019-01-15T07:27:49.077Z,79.99
2019-01-15T07:30:24.146Z,80.45
2019-01-15T07:32:55.525Z,80.46
2019-01-15T07:35:27.322Z,80.63
2019-01-15T07:37:58.571Z,80.91
2019-01-15T07:40:29.458Z,81.02
2019-01-15T07:43:00.410Z,81.10
2019-01-15T07:45:31.357Z,81.33
2019-01-15T07:48:02.251Z,81.25
2019-01-15T07:50:33.189Z,80.90
2019-01-15T07:53:04.283Z,81.30
2019-01-15T07:55:35.176Z,81.36
2019-01-15T07:58:06.201Z,81.23
2019-01-15T08:00:37.103Z,80.98
2019-01-15T08:03:08.140Z,81.32
2019-01-15T08:05:39.044Z,81.22
2019-01-15T08:08:10.381Z,81.47
2019-01-15T08:10:41.767Z,81.43
2019-01-15T08:13:12.885Z,81.16
2019-01-15T08:15:43.818Z,81.51
2019-01-15T08:18:14.706Z,81.39
2019-01-15T08:20:45.696Z,81.62
2019-01-15T08:23:16.625Z,81.67
2019-01-15T08:25:47.537Z,82.07
2019-01-15T08:28:18.505Z,81.73
2019-01-15T08:30:49.401Z,81.63
2019-01-15T08:33:20.299Z,81.56
2019-01-15T08:35:51.251Z,81.64
2019-01-15T08:38:22.156Z,81.80
2019-01-15T08:40:53.381Z,81.64
2019-01-15T08:43:24.280Z,81.36
2019-01-15T08:45:55.489Z,81.56
2019-01-15T08:48:29.399Z,81.66
2019-01-15T08:51:00.681Z,81.62
2019-01-15T08:53:31.909Z,81.79
2019-01-15T08:56:03.075Z,81.85
2019-01-15T08:58:33.980Z,82.30
2019-01-15T09:01:05.222Z,83.03
2019-01-15T09:03:36.221Z,83.14
2019-01-15T09:06:07.324Z,83.17
2019-01-15T09:08:38.548Z,83.19
2019-01-15T09:11:09.439Z,83.03
2019-01-15T09:13:40.450Z,83.29
2019-01-15T09:16:11.365Z,83.05
2019-01-15T09:18:42.513Z,83.35
2019-01-15T09:21:13.523Z,83.73
2019-01-15T09:23:44.480Z,84.14
2019-01-15T09:26:15.713Z,84.55
2019-01-15T09:28:46.703Z,85.06
2019-01-15T09:31:17.932Z,84.78
2019-01-15T09:33:48.828Z,85.19
2019-01-15T09:36:20.058Z,85.49
2019-01-15T09:38:51.280Z,85.30
2019-01-15T09:41:22.192Z,85.20
2019-01-15T09:43:53.142Z,85.77
2019-01-15T09:46:24.034Z,85.49
2019-01-15T09:48:55.030Z,85.65
2019-01-15T09:51:25.950Z,86.25
2019-01-15T09:53:56.842Z,86.00
2019-01-15T09:56:27.768Z,85.59
2019-01-15T09:58:58.666Z,85.59
2019-01-15T10:01:29.554Z,85.40
2019-01-15T10:04:00.499Z,85.36
2019-01-15T10:06:31.457Z,85.26
2019-01-15T10:09:02.395Z,85.33
2019-01-15T10:11:33.278Z,84.72
2019-01-15T10:14:04.381Z,84.78
2019-01-15T10:16:35.599Z,84.84
2019-01-15T10:19:06.489Z,84.97
2019-01-15T10:21:37.439Z,85.07
2019-01-15T10:24:08.419Z,84.98
2019-01-15T10:26:39.434Z,85.12
2019-01-15T10:29:10.412Z,85.17
2019-01-15T10:32:45.702Z,85.00
2019-01-15T10:35:57.666Z,85.00
2019-01-15T10:38:31.045Z,85.09
2019-01-15T10:41:02.929Z,85.18
2019-01-15T10:43:35.388Z,85.06
2019-01-15T10:46:07.686Z,85.50
2019-01-15T10:48:38.663Z,85.22
2019-01-15T10:51:09.588Z,85.18
2019-01-15T10:53:40.662Z,84.85
2019-01-15T10:56:11.615Z,84.63
2019-01-15T10:58:42.815Z,84.44
2019-01-15T11:01:13.713Z,84.44
2019-01-15T11:03:44.642Z,84.07
2019-01-15T11:06:15.535Z,84.18
2019-01-15T11:08:46.486Z,83.90
2019-01-15T11:11:17.383Z,83.97
2019-01-15T11:13:49.364Z,84.13
2019-01-15T11:16:20.281Z,84.30
2019-01-15T11:18:51.551Z,84.76
2019-01-15T11:21:22.783Z,84.68
2019-01-15T11:23:53.718Z,85.07
2019-01-15T11:26:24.631Z,84.95
2019-01-15T11:28:55.577Z,84.65
2019-01-15T11:31:26.473Z,84.83
2019-01-15T11:33:57.451Z,85.36
2019-01-15T11:36:28.361Z,85.06
2019-01-15T11:38:59.254Z,84.83
2019-01-15T11:41:30.176Z,84.17
2019-01-15T11:44:01.091Z,84.34
2019-01-15T11:46:33.492Z,84.07
2019-01-15T11:49:04.777Z,84.35
2019-01-15T11:51:35.975Z,83.78
2019-01-15T11:54:07.105Z,83.95
2019-01-15T11:56:38.279Z,83.50
2019-01-15T11:59:09.388Z,83.16
2019-01-15T12:01:46.382Z,83.34
2019-01-15T12:04:46.424Z,83.01
2019-01-15T12:07:39.560Z,82.97
2019-01-15T12:10:34.575Z,83.02
2019-01-15T12:13:42.249Z,83.34
2019-01-15T12:16:28.078Z,83.12
2019-01-15T12:19:16.515Z,83.19
2019-01-15T12:22:01.920Z,83.26
2019-01-15T12:24:57.541Z,83.42
2019-01-15T12:27:49.837Z,83.42
2019-01-15T12:30:57.791Z,83.58
2019-01-15T12:33:48.768Z,83.37
2019-01-15T12:36:53.791Z,83.51
2019-01-15T12:39:44.145Z,83.41
2019-01-15T12:42:36.802Z,83.51
2019-01-15T12:45:37.286Z,83.62
2019-01-15T12:48:35.674Z,83.81
2019-01-15T12:51:25.583Z,83.24
2019-01-15T12:54:14.006Z,83.00
2019-01-15T12:57:02.405Z,83.11
2019-01-15T12:59:58.052Z,83.07
2019-01-15T13:03:02.870Z,82.86
2019-01-15T13:05:53.997Z,83.00
2019-01-15T13:09:01.717Z,83.18
2019-01-15T13:12:00.582Z,82.88
2019-01-15T13:14:56.470Z,82.48
2019-01-15T13:17:45.226Z,82.44
2019-01-15T13:20:53.841Z,82.47
2019-01-15T13:23:43.563Z,81.90
2019-01-15T13:26:32.218Z,81.95
2019-01-15T13:29:35.964Z,82.26
2019-01-15T13:32:19.714Z,81.79
2019-01-15T13:35:09.516Z,82.20
2019-01-15T13:38:17.810Z,81.83
2019-01-15T13:41:06.192Z,81.58
2019-01-15T13:44:11.143Z,81.68
2019-01-15T13:47:10.687Z,81.63
2019-01-15T13:50:05.069Z,81.66
2019-01-15T13:53:00.422Z,81.79
2019-01-15T13:55:50.253Z,82.02
2019-01-15T13:58:48.242Z,82.02
2019-01-15T14:01:36.791Z,82.08
2019-01-15T14:04:34.075Z,82.61
2019-01-15T14:07:19.395Z,82.67
2019-01-15T14:10:07.570Z,82.84
2019-01-15T14:12:55.947Z,83.05
2019-01-15T14:15:54.709Z,83.21
2019-01-15T14:18:47.608Z,83.13
2019-01-15T14:21:36.333Z,83.45
2019-01-15T14:24:19.428Z,83.41
2019-01-15T14:27:12.071Z,83.50
2019-01-15T14:29:58.516Z,83.54
2019-01-15T14:32:48.286Z,83.42
2019-01-15T14:35:38.140Z,82.82
2019-01-15T14:38:23.517Z,83.12
2019-01-15T14:41:12.101Z,82.58
2019-01-15T14:44:08.879Z,82.57
2019-01-15T14:47:04.826Z,82.65
2019-01-15T14:49:53.196Z,83.13
2019-01-15T14:52:41.182Z,83.64
2019-01-15T14:55:30.920Z,83.70
2019-01-15T14:58:20.698Z,84.01
2019-01-15T15:01:08.791Z,84.61
2019-01-15T15:03:58.645Z,84.92
2019-01-15T15:06:48.410Z,85.42
2019-01-15T15:09:38.253Z,85.85
2019-01-15T15:12:38.596Z,86.02
2019-01-15T15:15:31.414Z,86.42
2019-01-15T15:18:24.690Z,86.19
2019-01-15T15:21:18.275Z,86.24
2019-01-15T15:24:06.978Z,86.14
2019-01-15T15:26:57.085Z,85.89
2019-01-15T15:29:55.829Z,85.81
2019-01-15T15:32:35.334Z,86.01
2019-01-15T15:35:33.030Z,86.37
2019-01-15T15:38:26.212Z,86.40
2019-01-15T15:41:28.233Z,86.91
2019-01-15T15:44:16.348Z,87.46
2019-01-15T15:46:59.826Z,87.20
2019-01-15T15:49:52.427Z,87.14
2019-01-15T15:52:34.709Z,86.75
2019-01-15T15:55:27.431Z,86.35
2019-01-15T15:58:17.238Z,86.36
2019-01-15T16:01:05.777Z,86.41
2019-01-15T16:03:57.767Z,85.78
2019-01-15T16:06:53.364Z,85.75
2019-01-15T16:09:43.082Z,85.43
2019-01-15T16:12:45.037Z,85.22
2019-01-15T16:15:40.891Z,84.71
2019-01-15T16:18:35.538Z,84.27
2019-01-15T16:21:25.312Z,83.73
2019-01-15T16:24:09.928Z,83.62
2019-01-15T16:27:17.921Z,83.18
2019-01-15T16:30:23.136Z,82.99
2019-01-15T16:33:12.903Z,82.94
2019-01-15T16:36:00.497Z,82.54
2019-01-15T16:38:53.580Z,82.74
2019-01-15T16:41:42.105Z,82.46
2019-01-15T16:44:30.520Z,82.39
2019-01-15T16:47:23.089Z,82.42
2019-01-15T16:50:15.985Z,82.05
2019-01-15T16:53:08.780Z,81.94
2019-01-15T16:56:01.571Z,82.31
2019-01-15T16:58:50.079Z,82.38
2019-01-15T17:01:51.764Z,82.54
2019-01-15T17:04:50.765Z,82.68
2019-01-15T17:07:40.508Z,83.13
2019-01-15T17:10:25.391Z,83.31
2019-01-15T17:13:21.008Z,83.34
2019-01-15T17:16:10.764Z,83.30
2019-01-15T17:19:10.333Z,83.46
2019-01-15T17:21:59.158Z,84.12
2019-01-15T17:24:47.412Z,84.60
2019-01-15T17:27:55.450Z,85.64
2019-01-15T17:30:40.609Z,86.31
2019-01-15T17:33:28.801Z,87.15
2019-01-15T17:36:24.657Z,88.40
2019-01-15T17:39:20.432Z,88.84
2019-01-15T17:42:08.589Z,88.78
2019-01-15T17:45:02.302Z,89.04
2019-01-15T17:48:10.244Z,89.30
2019-01-15T17:50:58.207Z,89.67
2019-01-15T17:53:47.938Z,89.81
2019-01-15T17:56:40.481Z,90.23
2019-01-15T17:59:28.728Z,90.21
2019-01-15T18:02:33.420Z,90.21
2019-01-15T18:05:32.976Z,90.32
2019-01-15T18:08:21.130Z,90.36
2019-01-15T18:11:09.533Z,90.66
2019-01-15T18:14:08.264Z,91.18
2019-01-15T18:16:57.984Z,91.41
2019-01-15T18:19:46.767Z,91.57
2019-01-15T18:22:36.891Z,91.49
2019-01-15T18:25:30.279Z,91.66
2019-01-15T18:28:20.423Z,91.76
2019-01-15T18:31:08.995Z,91.71
2019-01-15T18:33:57.263Z,91.87
2019-01-15T18:36:42.440Z,92.01
2019-01-15T18:39:30.946Z,92.17
2019-01-15T18:42:26.933Z,92.19
2019-01-15T18:45:09.697Z,92.07
2019-01-15T18:48:08.719Z,92.14
2019-01-15T18:50:57.507Z,92.13
2019-01-15T18:53:46.400Z,91.95
2019-01-15T18:56:49.438Z,92.10
2019-01-15T18:59:45.544Z,92.33
2019-01-15T19:02:38.333Z,92.19
2019-01-15T19:05:43.146Z,92.12
2019-01-15T19:08:35.414Z,92.05
2019-01-15T19:11:25.215Z,92.02
2019-01-15T19:14:07.148Z,91.85
2019-01-15T19:20:11.943Z,91.60
2019-01-15T19:23:01.688Z,91.67
2019-01-15T19:25:50.223Z,91.54
2019-01-15T19:28:40.994Z,91.59
2019-01-15T19:31:36.950Z,91.65
2019-01-15T19:34:26.997Z,91.97
2019-01-15T19:37:20.640Z,91.93
2019-01-15T19:39:59.160Z,92.01
2019-01-15T19:43:01.121Z,92.20
2019-01-15T19:45:51.411Z,92.19
2019-01-15T19:48:38.617Z,92.44
2019-01-15T19:51:31.179Z,92.55
2019-01-15T19:54:26.755Z,92.52
2019-01-15T19:57:26.715Z,92.34
2019-01-15T20:00:16.561Z,92.21
2019-01-15T20:03:06.380Z,92.36
2019-01-15T20:05:49.522Z,92.40
2019-01-15T20:08:56.369Z,92.54
2019-01-15T20:12:02.045Z,92.78
2019-01-15T20:15:00.426Z,93.11
2019-01-15T20:17:59.297Z,93.36
2019-01-15T20:20:52.707Z,93.38
2019-01-15T20:23:52.172Z,93.43
2019-01-15T20:26:35.514Z,93.30
2019-01-15T20:29:40.633Z,93.31
2019-01-15T20:32:21.513Z,93.27
2019-01-15T20:35:24.146Z,93.20
2019-01-15T20:38:18.174Z,93.31
2019-01-15T20:41:11.087Z,93.41
2019-01-15T20:44:07.141Z,93.57
2019-01-15T20:46:56.870Z,93.69
2019-01-15T20:49:45.035Z,93.64
2019-01-15T20:52:32.846Z,93.47
2019-01-15T20:55:21.202Z,93.52
2019-01-15T20:58:13.294Z,93.75
2019-01-15T21:01:15.699Z,93.74
2019-01-15T21:04:20.657Z,93.74
2019-01-15T21:07:03.066Z,93.63
2019-01-15T21:10:05.151Z,93.61
2019-01-15T21:15:53.143Z,93.34
2019-01-15T21:18:47.074Z,93.45
2019-01-15T21:21:26.246Z,93.53
2019-01-15T21:24:23.365Z,93.46
2019-01-15T21:27:13.604Z,93.27
2019-01-15T21:30:06.636Z,93.37
2019-01-15T21:33:05.249Z,93.18
2019-01-15T21:35:57.877Z,93.15
2019-01-15T21:38:59.772Z,93.25
2019-01-15T21:42:08.639Z,93.17
2019-01-15T21:44:53.938Z,93.17
2019-01-15T21:47:52.658Z,93.01
2019-01-15T21:50:37.184Z,92.86
2019-01-15T21:53:37.628Z,92.76
2019-01-15T21:56:22.548Z,92.21
2019-01-15T21:59:06.020Z,91.84
2019-01-15T22:02:05.099Z,91.63
2019-01-15T22:04:56.114Z,91.47
2019-01-15T22:07:44.368Z,91.27
2019-01-15T22:10:32.660Z,90.96
2019-01-15T22:13:17.128Z,90.69
2019-01-15T22:16:05.457Z,90.40
2019-01-15T22:18:54.893Z,90.10
2019-01-15T22:21:53.461Z,90.09
2019-01-15T22:24:58.361Z,90.00
2019-01-15T22:27:48.108Z,89.91
2019-01-15T22:30:31.436Z,89.94
2019-01-15T22:33:27.091Z,89.74
2019-01-15T22:36:14.553Z,89.71
2019-01-15T22:38:56.132Z,89.89
2019-01-15T22:41:57.827Z,89.79
2019-01-15T22:44:46.576Z,89.80
2019-01-15T22:47:36.316Z,89.70
2019-01-15T22:50:26.123Z,90.06
2019-01-15T22:53:18.841Z,90.02
2019-01-15T22:56:03.428Z,90.46
2019-01-15T22:58:59.496Z,90.77
2019-01-15T23:01:50.999Z,91.22
2019-01-15T23:04:43.371Z,91.37
2019-01-15T23:07:39.185Z,91.64
2019-01-15T23:10:32.650Z,91.55
2019-01-15T23:13:25.460Z,91.28
2019-01-15T23:16:13.403Z,91.16
2019-01-15T23:18:56.227Z,90.89
2019-01-15T23:21:55.129Z,90.38
2019-01-15T23:24:53.949Z,90.12
2019-01-15T23:27:43.664Z,89.85
2019-01-15T23:30:34.977Z,89.35
2019-01-15T23:33:30.980Z,89.17
2019-01-15T23:36:29.775Z,89.06
2019-01-15T23:39:19.499Z,89.15
2019-01-15T23:42:07.908Z,88.99
2019-01-15T23:44:57.664Z,88.69
2019-01-15T23:47:45.882Z,88.75
2019-01-15T23:50:44.444Z,88.92
2019-01-15T23:53:37.078Z,88.52
2019-01-15T23:56:35.922Z,88.46
2019-01-15T23:59:18.756Z,88.41
